CSUN Campus Station - National Weather Service Data Page - PST Time




                Date      RH     Dew  Seasonal     Current   Max Air   Min Air    Wind    Wind    Wind    Gust     Bar    Rain
                Time       %   Point      Rain    Air Temp     Since     Since   Speed    Gust     Dir     Dir   Press   Total
                               Deg F    Inches       Deg F  Midnight  Midnight     MPH     MPH                      mb  Inches
------------------------------------------------------------------------------------------------------------------------------
    05/23/2018 00:00      65    47.8      8.52        59.3      71.3      57.0       0       1     293     305    1012    0.00
    05/23/2018 00:10      66    47.7      8.52        59.2      59.5      59.0       0       1     268     280    1012    0.00
    05/23/2018 00:20      66    47.8      8.52        59.1      59.5      59.0       0       0     262     261    1012    0.00
    05/23/2018 00:30      66    47.7      8.52        59.0      59.5      58.9       0       1     290     291    1012    0.00
    05/23/2018 00:40      66    47.7      8.52        59.1      59.5      58.9       0       1     280     285    1012    0.00
    05/23/2018 00:50      66    47.9      8.52        59.1      59.5      58.9       0       2     281     288    1012    0.00
    05/23/2018 01:00      67    48.0      8.52        59.1      59.5      58.9       1       2     282     252    1012    0.00
    05/23/2018 01:10      66    48.0      8.52        59.1      59.5      58.9       1       3     251     253    1012    0.00
    05/23/2018 01:20      67    48.0      8.52        59.1      59.5      58.9       2       4     230     240    1012    0.00
    05/23/2018 01:30      67    48.2      8.52        59.1      59.5      58.9       1       3     197     187    1012    0.00
    05/23/2018 01:40      69    48.4      8.52        58.8      59.5      58.5       2       4     204     182    1012    0.00
    05/23/2018 01:50      68    48.1      8.52        58.5      59.5      58.3       2       3     189     205    1012    0.00
    05/23/2018 02:00      69    48.2      8.52        58.4      59.5      58.2       2       3     196     188    1012    0.00
    05/23/2018 02:10      69    48.0      8.52        58.2      59.5      58.0       2       3     201     189    1012    0.00
    05/23/2018 02:20      69    48.1      8.52        58.1      59.5      57.9       1       3     214     193    1012    0.00
    05/23/2018 02:30      69    47.8      8.52        58.0      59.5      57.8       0       2     226     268    1012    0.00
    05/23/2018 02:40      69    47.9      8.52        58.0      59.5      57.8       2       4     205     198    1012    0.00
    05/23/2018 02:50      69    47.9      8.52        57.9      59.5      57.8       2       5     219     257    1012    0.00
    05/23/2018 03:00      68    47.8      8.52        58.1      59.5      57.8       1       4     228     253    1012    0.00
    05/23/2018 03:10      68    47.9      8.52        58.2      59.5      57.8       1       3     219     191    1012    0.00
    05/23/2018 03:20      68    47.7      8.52        58.3      59.5      57.8       0       2     213     205    1012    0.00
    05/23/2018 03:30      68    48.0      8.52        58.4      59.5      57.8       0       2     194     187    1012    0.00
    05/23/2018 03:40      68    48.0      8.52        58.3      59.5      57.8       0       1     227     221    1012    0.00
    05/23/2018 03:50      68    47.9      8.52        58.3      59.5      57.8       0       1     183     173    1012    0.00
    05/23/2018 04:00      68    47.9      8.52        58.5      59.5      57.8       1       2     192     193    1012    0.00
    05/23/2018 04:10      67    47.7      8.52        58.5      59.5      57.8       1       2     191     195    1012    0.00
    05/23/2018 04:20      66    47.7      8.52        58.6      59.5      57.8       1       2     145     156    1012    0.00
    05/23/2018 04:30      66    47.6      8.52        58.8      59.5      57.8       1       3     142     137    1012    0.00
    05/23/2018 04:40      66    47.6      8.52        58.8      59.5      57.8       0       2      92      93    1012    0.00
    05/23/2018 04:50      67    47.8      8.52        58.9      59.5      57.8       1       2     134     114    1012    0.00
    05/23/2018 05:00      69    48.2      8.52        58.9      59.5      57.8       2       4     142     143    1012    0.00
    05/23/2018 05:10      72    49.4      8.52        58.7      59.5      57.8       3       4     156     125    1013    0.00
    05/23/2018 05:20      73    49.5      8.52        58.3      59.5      57.8       3       4     145     144    1013    0.00
    05/23/2018 05:30      72    49.4      8.52        58.1      59.5      57.8       2       4     131     148    1013    0.00
    05/23/2018 05:40      73    49.6      8.52        58.2      59.5      57.8       2       3     140     140    1013    0.00
    05/23/2018 05:50      73    49.8      8.52        58.3      59.5      57.8       2       4     133      83    1013    0.00
    05/23/2018 06:00      73    49.7      8.52        58.3      59.5      57.8       2       5     106     100    1013    0.00
    05/23/2018 06:10      73    49.7      8.52        58.3      59.5      57.8       2       4     129     149    1013    0.00
    05/23/2018 06:20      74    49.7      8.52        58.2      59.5      57.8       2       4     129      92    1013    0.00
    05/23/2018 06:30      73    49.7      8.52        58.2      59.5      57.8       2       4     104      90    1013    0.00
    05/23/2018 06:40      73    49.6      8.52        58.2      59.5      57.8       2       3     125      75    1013    0.00
    05/23/2018 06:50      73    49.6      8.52        58.3      59.5      57.8       1       4     106     107    1013    0.00
    05/23/2018 07:00      73    49.6      8.52        58.3      59.5      57.8       2       4     106      87    1013    0.00
    05/23/2018 07:10      73    49.7      8.52        58.4      59.5      57.8       1       3     125     147    1013    0.00
    05/23/2018 07:20      72    49.5      8.52        58.5      59.5      57.8       3       4      89      93    1013    0.00
    05/23/2018 07:30      71    49.2      8.52        58.5      59.5      57.8       3       6      78      83    1014    0.00
    05/23/2018 07:40      71    49.2      8.52        58.6      59.5      57.8       3       7      68      82    1014    0.00
    05/23/2018 07:50      70    49.3      8.52        58.8      59.5      57.8       2       5      73      79    1014    0.00
    05/23/2018 08:00      69    49.1      8.52        59.2      59.5      57.8       3       6      65      89    1014    0.00
    05/23/2018 08:10      69    49.0      8.52        59.3      59.5      57.8       2       4      79      63    1014    0.00
    05/23/2018 08:20      68    49.2      8.52        59.6      59.9      57.8       2       3     107     131    1014    0.00
    05/23/2018 08:30      67    49.2      8.52        59.9      60.1      57.8       2       5     113      92    1014    0.00
    05/23/2018 08:40      68    49.1      8.52        59.9      60.1      57.8       3       6     107     173    1014    0.00
    05/23/2018 08:50      66    49.2      8.52        60.2      60.5      57.8       2       5     105     186    1014    0.00
    05/23/2018 09:00      68    49.1      8.52        60.3      60.5      57.8       2       4     116     116    1014    0.00
    05/23/2018 09:10      65    49.3      8.52        60.7      60.9      57.8       2       5     127     135    1014    0.00
    05/23/2018 09:20      65    49.1      8.52        60.9      61.2      57.8       2       5     120     152    1014    0.00
    05/23/2018 09:30      64    49.1      8.52        61.3      61.5      57.8       2       4     112      97    1014    0.00
    05/23/2018 09:40      63    49.2      8.52        61.7      62.1      57.8       3       6     143     153    1014    0.00
    05/23/2018 09:50      63    49.1      8.52        61.8      62.1      57.8       2       4     124      79    1014    0.00
    05/23/2018 10:00      62    49.4      8.52        62.0      62.4      57.8       3       6     142     164    1014    0.00
    05/23/2018 10:10      62    49.2      8.52        62.3      62.6      57.8       3       6     131     139    1014    0.00
    05/23/2018 10:20      62    49.3      8.52        62.2      62.6      57.8       2       5     149     180    1014    0.00
    05/23/2018 10:30      63    49.2      8.52        62.3      62.6      57.8       2       6     169     172    1014    0.00
    05/23/2018 10:40      60    48.9      8.52        62.8      63.0      57.8       1       3     134      76    1014    0.00
    05/23/2018 10:50      61    48.9      8.52        62.9      63.1      57.8       1       5     178     138    1014    0.00
    05/23/2018 11:00      60    49.2      8.52        63.1      63.5      57.8       2       5     203     145    1014    0.00
    05/23/2018 11:10      60    49.0      8.52        63.3      63.6      57.8       2       5     185     120    1014    0.00
    05/23/2018 11:20      59    49.1      8.52        63.6      64.0      57.8       2       5     135     132    1014    0.00
    05/23/2018 11:30      57    48.9      8.52        63.8      64.2      57.8       2       5     288     304    1014    0.00
    05/23/2018 11:40      54    49.1      8.52        64.8      65.6      57.8       1       3     290     288    1014    0.00
    05/23/2018 11:50      57    48.8      8.52        64.7      65.6      57.8       3       6     196     177    1014    0.00
    05/23/2018 12:00      57    48.8      8.52        64.3      65.6      57.8       2       5     135     156    1014    0.00
    05/23/2018 12:10      56    49.2      8.52        65.1      65.8      57.8       3       6     126      45    1014    0.00
    05/23/2018 12:20      54    49.4      8.52        65.4      66.4      57.8       3       6     138      71    1014    0.00
    05/23/2018 12:30      51    49.7      8.52        67.4      68.8      57.8       2       5     194     157    1014    0.00
    05/23/2018 12:40      50    50.3      8.52        69.4      70.0      57.8       3       6     205     216    1014    0.00
    05/23/2018 12:50      48    49.7      8.52        69.4      70.1      57.8       4       8     150     176    1014    0.00
    05/23/2018 13:00      50    49.5      8.52        69.3      70.1      57.8       2       8     137     163    1013    0.00
    05/23/2018 13:10      52    49.2      8.52        69.0      70.1      57.8       2       5      65      69    1013    0.00
    05/23/2018 13:20      50    50.1      8.52        68.8      70.1      57.8       5      10     160     181    1013    0.00
    05/23/2018 13:30      51    49.6      8.52        68.9      70.1      57.8       3       6     201     183    1013    0.00
    05/23/2018 13:40      50    49.8      8.52        69.1      70.1      57.8       2       6     150     177    1013    0.00
    05/23/2018 13:50      48    49.4      8.52        69.9      70.3      57.8       2       4     171     184    1013    0.00
    05/23/2018 14:00      48    49.7      8.52        70.2      70.7      57.8       3       9     128     190    1013    0.00
    05/23/2018 14:10      47    49.5      8.52        70.0      70.7      57.8       4       8     106      83    1013    0.00
    05/23/2018 14:20      46    49.2      8.52        70.5      71.3      57.8       3       6      92      86    1013    0.00
    05/23/2018 14:30      47    49.0      8.52        70.1      71.3      57.8       2       6      67      32    1013    0.00
    05/23/2018 14:40      44    50.0      8.52        71.6      72.7      57.8       3       8     147     164    1013    0.00
    05/23/2018 14:50      43    49.8      8.52        72.5      72.9      57.8       3       6     207     194    1012    0.00
    05/23/2018 15:00      43    48.7      8.52        71.8      72.9      57.8       1       4     163     168    1012    0.00
    05/23/2018 15:10      44    48.6      8.52        72.1      73.0      57.8       2       4     311     205    1012    0.00
    05/23/2018 15:20      47    49.6      8.52        72.2      73.0      57.8       4       8     152     180    1012    0.00
    05/23/2018 15:30      46    49.8      8.52        72.5      73.0      57.8       3       7     136     164    1012    0.00
    05/23/2018 15:40      43    49.9      8.52        72.9      73.4      57.8       5       9     139     128    1012    0.00
    05/23/2018 15:50      45    50.0      8.52        72.9      73.6      57.8       4       8     151     157    1012    0.00
    05/23/2018 16:00      47    50.6      8.52        72.5      73.6      57.8       7      13     148     151    1012    0.00
    05/23/2018 16:10      47    50.6      8.52        71.6      73.6      57.8       6      12     147     148    1012    0.00
    05/23/2018 16:20      48    50.4      8.52        71.4      73.6      57.8       6      13     143     153    1012    0.00
    05/23/2018 16:30      49    50.0      8.52        70.4      73.6      57.8       5      13     130     170    1012    0.00
    05/23/2018 16:40      49    50.0      8.52        70.1      73.6      57.8       4       9     140     150    1012    0.00
    05/23/2018 16:50      49    50.1      8.52        70.3      73.6      57.8       4       8     152     162    1012    0.00
    05/23/2018 17:00      48    50.1      8.52        70.4      73.6      57.8       5      10     149     151    1012    0.00
    05/23/2018 17:10      47    50.0      8.52        70.7      73.6      57.8       4       8     147     173    1012    0.00
    05/23/2018 17:20      49    49.8      8.52        69.8      73.6      57.8       4       7     101      98    1012    0.00
    05/23/2018 17:30      49    49.8      8.52        69.6      73.6      57.8       3       7     101      73    1012    0.00
    05/23/2018 17:40      50    49.8      8.52        69.3      73.6      57.8       3       7     125     151    1012    0.00
    05/23/2018 17:50      52    49.6      8.52        68.6      73.6      57.8       4      10     122     122    1012    0.00
    05/23/2018 18:00      53    49.5      8.52        67.6      73.6      57.8       4       8     131     147    1012    0.00
    05/23/2018 18:10      54    49.4      8.52        67.0      73.6      57.8       4       8     124     141    1012    0.00
    05/23/2018 18:20      54    49.3      8.52        66.5      73.6      57.8       3       7     107      80    1012    0.00
    05/23/2018 18:30      55    49.2      8.52        66.0      73.6      57.8       3       7     108     106    1013    0.00
    05/23/2018 18:40      56    49.4      8.52        65.8      73.6      57.8       3       6     117      83    1013    0.00
    05/23/2018 18:50      58    49.6      8.52        65.1      73.6      57.8       3       9     267     240    1013    0.00
    05/23/2018 19:00      59    49.6      8.52        64.4      73.6      57.8       1       4     313     312    1013    0.00
    05/23/2018 19:10      60    49.3      8.52        63.9      73.6      57.8       0       3     287     297    1013    0.00
    05/23/2018 19:20      61    49.2      8.52        63.2      73.6      57.8       1       3     302     247    1013    0.00
    05/23/2018 19:30      62    49.1      8.52        62.7      73.6      57.8       1       4     281     230    1013    0.00
    05/23/2018 19:40      62    49.1      8.52        62.3      73.6      57.8       0       1     267     284    1014    0.00
    05/23/2018 19:50      63    48.9      8.52        61.9      73.6      57.8       2       3     148     157    1014    0.00
    05/23/2018 20:00      63    48.9      8.52        61.6      73.6      57.8       2       4     119     138    1014    0.00
    05/23/2018 20:10      64    48.8      8.52        61.2      73.6      57.8       2       4     148     131    1014    0.00
    05/23/2018 20:20      65    49.0      8.52        60.9      73.6      57.8       2       5     149     126    1014    0.00
    05/23/2018 20:30      66    49.1      8.52        60.7      73.6      57.8       2       4     215     218    1014    0.00
    05/23/2018 20:40      67    49.0      8.52        60.3      73.6      57.8       2       4     228     252    1014    0.00
    05/23/2018 20:50      67    48.9      8.52        60.0      73.6      57.8       2       4     235     260    1015    0.00
    05/23/2018 21:00      68    48.9      8.52        59.7      73.6      57.8       3       6     206     191    1015    0.00
    05/23/2018 21:10      68    48.9      8.52        59.5      73.6      57.8       4       6     195     197    1015    0.00
    05/23/2018 21:20      69    48.9      8.52        59.1      73.6      57.8       3       6     238     252    1015    0.00
    05/23/2018 21:30      69    48.6      8.52        58.7      73.6      57.8       2       5     239     257    1015    0.00
    05/23/2018 21:40      70    48.5      8.52        58.2      73.6      57.8       3       6     253     262    1015    0.00
    05/23/2018 21:50      70    48.4      8.52        58.0      73.6      57.7       3       6     243     239    1015    0.00
    05/23/2018 22:00      71    48.3      8.52        57.7      73.6      57.5       2       5     236     247    1015    0.00
    05/23/2018 22:10      72    48.2      8.52        57.4      73.6      57.1       2       6     233     244    1015    0.00
    05/23/2018 22:20      72    48.2      8.52        57.2      73.6      57.0       3       6     242     237    1015    0.00
    05/23/2018 22:30      72    48.2      8.52        57.2      73.6      57.0       2       6     271     245    1015    0.00
    05/23/2018 22:40      72    48.1      8.52        57.1      73.6      56.7       0       3     234     212    1015    0.00
    05/23/2018 22:50      73    48.2      8.52        56.8      73.6      56.7       2       4     241     239    1015    0.00
    05/23/2018 23:00      73    48.5      8.52        57.0      73.6      56.7       1       3     244     266    1016    0.00
    05/23/2018 23:10      72    48.6      8.52        57.3      73.6      56.7       0       1     213     183    1016    0.00
    05/23/2018 23:20      72    48.6      8.52        57.5      73.6      56.7       0       2     156     145    1015    0.00
    05/23/2018 23:30      71    48.6      8.52        57.8      73.6      56.7       2       3     152     171    1016    0.00
    05/23/2018 23:40      71    48.6      8.52        58.0      73.6      56.7       2       3     151     165    1015    0.00
    05/23/2018 23:50      70    48.6      8.52        58.1      73.6      56.7       1       3     137     161    1015    0.00
    05/24/2018 00:00      71    48.5      8.52        58.1      73.6      56.7       2       3     154     143    1015    0.00
    05/24/2018 00:10      70    48.5      8.52        58.1      58.3      57.9       2       3     152     157    1015    0.00
    05/24/2018 00:20      70    48.5      8.52        58.1      58.3      57.9       2       3     135     128    1015    0.00
    05/24/2018 00:30      70    48.4      8.52        58.2      58.4      57.9       2       3     120     136    1015    0.00
    05/24/2018 00:40      70    48.5      8.52        58.2      58.4      57.9       1       3     118      88    1015    0.00
    05/24/2018 00:50      70    48.8      8.52        58.4      58.5      57.9       1       2     143     164    1015    0.00
    05/24/2018 01:00      69    48.5      8.52        58.4      58.5      57.9       2       3      55      33    1015    0.00
    05/24/2018 01:10      69    48.4      8.52        58.3      58.5      57.9       2       4      73      52    1015    0.00
    05/24/2018 01:20      69    48.3      8.52        58.3      58.6      57.9       2       3      84      69    1015    0.00
    05/24/2018 01:30      69    48.3      8.52        58.3      58.6      57.9       2       3     102      70    1015    0.00
    05/24/2018 01:40      70    48.3      8.52        58.2      58.6      57.9       1       3      92      64    1015    0.00
    05/24/2018 01:50      70    48.2      8.52        58.1      58.6      57.9       2       4      98      88    1015    0.00
    05/24/2018 02:00      70    48.4      8.52        58.1      58.6      57.9       2       4     151     144    1015    0.00
    05/24/2018 02:10      70    48.2      8.52        58.0      58.6      57.8       2       4     101      83    1015    0.00
    05/24/2018 02:20      70    48.3      8.52        57.9      58.6      57.8       1       3      68      41    1015    0.00
    05/24/2018 02:30      70    48.3      8.52        57.9      58.6      57.7       1       3     105     139    1015    0.00
    05/24/2018 02:40      71    48.5      8.52        58.0      58.6      57.7       0       2      10       0    1015    0.00
    05/24/2018 02:50      70    48.6      8.52        58.1      58.6      57.7       0       2      62      64    1015    0.00
    05/24/2018 03:00      71    48.6      8.52        58.0      58.6      57.7       2       4      60      42    1016    0.00
    05/24/2018 03:10      71    48.7      8.52        58.0      58.6      57.7       2       4      64      35    1015    0.00
    05/24/2018 03:20      71    48.7      8.52        58.1      58.6      57.7       1       2      61      79    1015    0.00
    05/24/2018 03:30      72    49.0      8.52        58.1      58.6      57.7       1       3      98      98    1015    0.00
    05/24/2018 03:40      72    49.2      8.52        58.3      58.6      57.7       1       3     129      93    1015    0.00
    05/24/2018 03:50      72    49.3      8.52        58.4      58.6      57.7       1       3     130     148    1015    0.00
    05/24/2018 04:00      73    49.5      8.52        58.2      58.6      57.7       2       4     115     146    1015    0.00
    05/24/2018 04:10      73    49.5      8.52        58.1      58.6      57.7       1       3     123     134    1015    0.00
    05/24/2018 04:20      75    49.6      8.52        58.0      58.6      57.7       3       5     162     174    1015    0.00
    05/24/2018 04:30      76    49.8      8.52        57.5      58.6      57.3       3       5     176     170    1015    0.00
    05/24/2018 04:40      77    50.0      8.52        57.3      58.6      57.1       3       5     172     170    1015    0.00
    05/24/2018 04:50      78    50.4      8.52        57.3      58.6      57.1       2       4     134     166    1015    0.00
    05/24/2018 05:00      80    50.6      8.52        56.9      58.6      56.6       2       4     154     167    1016    0.00
    05/24/2018 05:10      82    51.0      8.52        56.7      58.6      56.4       2       3     168     158    1016    0.00
    05/24/2018 05:20      83    51.2      8.52        56.5      58.6      56.4       0       2     201     185    1016    0.00
    05/24/2018 05:30      83    51.3      8.52        56.5      58.6      56.3       0       1     222     217    1016    0.00
    05/24/2018 05:40      83    51.5      8.52        56.6      58.6      56.3       1       2     242     267    1016    0.00
    05/24/2018 05:50      83    51.6      8.52        56.8      58.6      56.3       1       2     254     254    1016    0.00
    05/24/2018 06:00      84    51.9      8.52        56.9      58.6      56.3       2       3     270     255    1017    0.00
    05/24/2018 06:10      84    52.1      8.52        56.9      58.6      56.3       2       4     215     184    1017    0.00
    05/24/2018 06:20      84    52.1      8.52        56.9      58.6      56.3       3       4     173     188    1017    0.00
    05/24/2018 06:30      85    52.5      8.52        57.0      58.6      56.3       2       4     154     154    1017    0.00
    05/24/2018 06:40      85    52.6      8.52        57.0      58.6      56.3       0       3     152     154    1017    0.00
    05/24/2018 06:50      86    52.8      8.52        57.1      58.6      56.3       0       3     153     153    1017    0.00
    05/24/2018 07:00      84    52.8      8.52        57.2      58.6      56.3       1       4     108      92    1017    0.00
    05/24/2018 07:10      84    52.5      8.52        57.3      58.6      56.3       2       3      98      81    1017    0.00
    05/24/2018 07:20      83    52.6      8.52        57.6      58.6      56.3       2       3     132      54    1017    0.00
    05/24/2018 07:30      81    52.2      8.52        57.6      58.6      56.3       2       4     106     155    1017    0.00
    05/24/2018 07:40      82    52.6      8.52        58.1      58.6      56.3       2       4     152     136    1017    0.00
    05/24/2018 07:50      78    52.7      8.52        58.8      59.0      56.3       2       4     138     120    1017    0.00
    05/24/2018 08:00      77    51.7      8.52        58.8      59.0      56.3       2       5     139     154    1017    0.00
    05/24/2018 08:10      77    51.6      8.52        59.0      59.2      56.3       3       5     164     165    1017    0.00
    05/24/2018 08:20      76    51.8      8.52        59.1      59.4      56.3       2       4     126     171    1017    0.00
    05/24/2018 08:30      78    52.1      8.52        59.1      59.4      56.3       2       4     149     173    1017    0.00
    05/24/2018 08:40      76    52.2      8.52        59.5      59.8      56.3       4       7     165     157    1017    0.00
    05/24/2018 08:50      73    52.1      8.52        60.1      60.6      56.3       3       5     156     164    1017    0.00
    05/24/2018 09:00      72    51.6      8.52        60.4      60.6      56.3       3       6     143     185    1017    0.00
    05/24/2018 09:10      73    51.6      8.52        60.4      60.6      56.3       4       8     151     138    1017    0.00
    05/24/2018 09:20      73    51.9      8.52        60.3      60.6      56.3       5       8     162     163    1017    0.00
    05/24/2018 09:30      73    51.7      8.52        60.2      60.6      56.3       4       7     164     149    1017    0.00
    05/24/2018 09:40      75    51.8      8.52        60.4      60.7      56.3       4       7     175     185    1017    0.00
    05/24/2018 09:50      75    52.0      8.52        59.9      60.7      56.3       4       8     194     203    1017    0.00
    05/24/2018 10:00      75    51.8      8.52        59.8      60.7      56.3       3       5     203     195    1018    0.00
    05/24/2018 10:10      73    51.8      8.52        60.1      60.7      56.3       2       5     139     145    1018    0.00
    05/24/2018 10:20      71    51.5      8.52        60.7      61.2      56.3       3       6     160     172    1018    0.00
    05/24/2018 10:30      69    51.1      8.52        61.3      61.6      56.3       4       8     152     143    1018    0.00
    05/24/2018 10:40      67    50.9      8.52        61.3      61.6      56.3       3       6     147     176    1017    0.00
    05/24/2018 10:50      67    51.0      8.52        61.5      61.7      56.3       3       6     165     182    1017    0.00
    05/24/2018 11:00      66    50.8      8.52        61.7      62.1      56.3       4       7     156     171    1017    0.00
    05/24/2018 11:10      67    50.6      8.52        61.7      62.1      56.3       3       6     151     155    1017    0.00
    05/24/2018 11:20      65    50.5      8.52        62.0      62.5      56.3       2       6     186     144    1017    0.00
    05/24/2018 11:30      66    50.2      8.52        62.2      62.6      56.3       2       5      89      93    1017    0.00
    05/24/2018 11:40      64    50.8      8.52        62.6      63.2      56.3       2       4     163     172    1017    0.00
    05/24/2018 11:50      64    50.6      8.52        62.9      63.3      56.3       2       5     111     124    1017    0.00
    05/24/2018 12:00      64    50.4      8.52        62.7      63.3      56.3       2       5     107     157    1017    0.00
    05/24/2018 12:10      64    50.6      8.52        62.7      63.3      56.3       2       6     106     141    1017    0.00
    05/24/2018 12:20      64    50.6      8.52        63.1      63.5      56.3       3       6      90      71    1017    0.00
    05/24/2018 12:30      62    50.7      8.52        63.4      63.9      56.3       3       8      93     105    1017    0.00
    05/24/2018 12:40      63    50.9      8.52        63.7      64.2      56.3       3       8     110      71    1017    0.00
    05/24/2018 12:50      63    50.8      8.52        63.7      64.2      56.3       2       5      94      83    1017    0.00
    05/24/2018 13:00      64    50.7      8.52        63.2      64.2      56.3       2       7     177     175    1017    0.00
    05/24/2018 13:10      64    50.9      8.52        63.3      64.2      56.3       3       6     170     152    1017    0.00
    05/24/2018 13:20      63    51.0      8.52        63.6      64.2      56.3       4       6     180     185    1017    0.00
    05/24/2018 13:30      62    51.0      8.52        64.0      64.5      56.3       3       6     161     194    1017    0.00
    05/24/2018 13:40      58    51.1      8.52        64.9      65.5      56.3       3       6     153     168    1017    0.00
    05/24/2018 13:50      59    50.9      8.52        65.4      65.6      56.3       3       6     141     178    1017    0.00
    05/24/2018 14:00      58    50.7      8.52        65.5      65.8      56.3       3       5      92      79    1017    0.00
    05/24/2018 14:10      59    50.8      8.52        65.5      66.0      56.3       3       6     110     147    1017    0.00
    05/24/2018 14:20      59    51.0      8.52        65.3      66.0      56.3       2       6     134     159    1017    0.00
    05/24/2018 14:30      59    51.1      8.52        65.4      66.0      56.3       3       7      98      52    1017    0.00
    05/24/2018 14:40      58    50.9      8.52        65.7      66.0      56.3       3       7     115      75    1017    0.00
    05/24/2018 14:50      59    50.8      8.52        65.7      66.0      56.3       4       9      93      93    1017    0.00
    05/24/2018 15:00      59    50.7      8.52        65.5      66.2      56.3       4       8      76      92    1016    0.00
    05/24/2018 15:10      57    50.5      8.52        66.3      66.6      56.3       5      10      94      70    1016    0.00
    05/24/2018 15:20      57    50.1      8.52        65.5      66.6      56.3       3      11     101      79    1016    0.00
    05/24/2018 15:30      58    50.1      8.52        65.5      66.6      56.3       4       8     127     134    1016    0.00
    05/24/2018 15:40      57    50.3      8.52        65.8      66.6      56.3       3       9     145     181    1016    0.00
    05/24/2018 15:50      57    50.2      8.52        65.6      66.6      56.3       4      12     156     152    1016    0.00
    05/24/2018 16:00      56    50.2      8.52        65.9      66.6      56.3       4       8     138     154    1016    0.00
    05/24/2018 16:10      57    50.1      8.52        65.8      66.6      56.3       3       8     146     148    1016    0.00
    05/24/2018 16:20      56    49.9      8.52        65.6      66.6      56.3       4       6     146     118    1016    0.00
    05/24/2018 16:30      57    49.8      8.52        65.4      66.6      56.3       4       8     158     153    1016    0.00
    05/24/2018 16:40      57    49.7      8.52        65.3      66.6      56.3       4      10     147     154    1016    0.00
    05/24/2018 16:50      57    49.6      8.52        65.2      66.6      56.3       3       6     133     157    1016    0.00
    05/24/2018 17:00      57    49.4      8.52        65.2      66.6      56.3       4       9     148     174    1016    0.00
    05/24/2018 17:10      57    49.2      8.52        64.6      66.6      56.3       4       8     151     157    1016    0.00
    05/24/2018 17:20      58    49.1      8.52        64.3      66.6      56.3       5       8     155     148    1016    0.00
    05/24/2018 17:30      58    49.1      8.52        64.2      66.6      56.3       5       9     166     174    1016    0.00
    05/24/2018 17:40      58    48.8      8.52        63.8      66.6      56.3       5       9     179     199    1016    0.00
    05/24/2018 17:50      59    48.7      8.52        63.3      66.6      56.3       6       9     190     192    1016    0.00
    05/24/2018 18:00      59    48.8      8.52        63.2      66.6      56.3       5       9     180     161    1016    0.00
    05/24/2018 18:10      60    48.6      8.52        62.8      66.6      56.3       6       8     192     184    1016    0.00
    05/24/2018 18:20      60    48.6      8.52        62.6      66.6      56.3       5       7     187     185    1016    0.00
    05/24/2018 18:30      61    48.6      8.52        62.4      66.6      56.3       4       7     188     192    1016    0.00
    05/24/2018 18:40      61    48.6      8.52        62.2      66.6      56.3       6       8     180     172    1016    0.00
    05/24/2018 18:50      65    49.2      8.52        62.0      66.6      56.3       3       6     241     289    1016    0.00
    05/24/2018 19:00      67    49.8      8.52        61.2      66.6      56.3       4       9     265     250    1016    0.00
    05/24/2018 19:10      68    49.9      8.52        60.7      66.6      56.3       3       8     277     256    1016    0.00
    05/24/2018 19:20      68    49.9      8.52        60.6      66.6      56.3       3       7     272     247    1017    0.00
    05/24/2018 19:30      68    49.9      8.52        60.4      66.6      56.3       4       8     262     253    1017    0.00
    05/24/2018 19:40      69    49.8      8.52        60.1      66.6      56.3       4       7     260     255    1017    0.00
    05/24/2018 19:50      69    49.7      8.52        60.0      66.6      56.3       4       7     254     248    1017    0.00
    05/24/2018 20:00      69    49.6      8.52        59.8      66.6      56.3       4       8     273     246    1017    0.00
    05/24/2018 20:10      69    49.6      8.52        59.6      66.6      56.3       3       6     271     283    1017    0.00
    05/24/2018 20:20      70    49.6      8.52        59.5      66.6      56.3       2       6     279     253    1017    0.00
    05/24/2018 20:30      70    49.5      8.52        59.4      66.6      56.3       2       4     278     271    1017    0.00
    05/24/2018 20:40      70    49.5      8.52        59.3      66.6      56.3       4       7     261     240    1017    0.00
    05/24/2018 20:50      70    49.4      8.52        59.2      66.6      56.3       3       6     269     256    1017    0.00
    05/24/2018 21:00      70    49.4      8.52        59.1      66.6      56.3       4       7     260     255    1017    0.00
    05/24/2018 21:10      70    49.3      8.52        59.1      66.6      56.3       4       7     261     238    1017    0.00
    05/24/2018 21:20      70    49.2      8.52        59.0      66.6      56.3       3       6     254     251    1017    0.00
    05/24/2018 21:30      70    49.2      8.52        59.0      66.6      56.3       3       6     266     250    1017    0.00
    05/24/2018 21:40      70    49.2      8.52        59.0      66.6      56.3       3       6     239     246    1017    0.00
    05/24/2018 21:50      69    49.0      8.52        59.0      66.6      56.3       3       6     226     215    1017    0.00
    05/24/2018 22:00      69    48.8      8.52        59.0      66.6      56.3       3       6     223     211    1017    0.00
    05/24/2018 22:10      69    48.9      8.52        58.9      66.6      56.3       3       6     208     196    1017    0.00
    05/24/2018 22:20      70    48.7      8.52        58.7      66.6      56.3       4       7     202     190    1017    0.00
    05/24/2018 22:30      70    48.7      8.52        58.6      66.6      56.3       2       4     219     171    1017    0.00
    05/24/2018 22:40      69    48.6      8.52        58.6      66.6      56.3       3       8     237     263    1017    0.00
    05/24/2018 22:50      69    48.6      8.52        58.6      66.6      56.3       4       7     251     246    1017    0.00
    05/24/2018 23:00      70    48.7      8.52        58.5      66.6      56.3       3       5     219     186    1017    0.00
    05/24/2018 23:10      70    48.8      8.52        58.5      66.6      56.3       3       7     227     171    1017    0.00
    05/24/2018 23:20      70    48.7      8.52        58.4      66.6      56.3       2       6     233     255    1017    0.00
    05/24/2018 23:30      71    48.7      8.52        58.3      66.6      56.3       2       5     225     232    1017    0.00
    05/24/2018 23:40      72    49.1      8.52        58.2      66.6      56.3       3       5     275     253    1017    0.00
    05/24/2018 23:50      73    49.1      8.52        57.7      66.6      56.3       3       7     278     260    1017    0.00
    05/25/2018 00:00      73    48.9      8.52        57.5      66.6      56.3       4       7     249     258    1017    0.00
    05/25/2018 00:10      73    48.9      8.52        57.4      57.6      57.1       4       6     251     245    1017    0.00
    05/25/2018 00:20      74    48.9      8.52        57.3      57.6      57.1       3       6     266     245    1017    0.00
    05/25/2018 00:30      74    48.8      8.52        57.0      57.6      56.8       4       8     271     256    1017    0.00
    05/25/2018 00:40      74    48.7      8.52        56.8      57.6      56.5       3       5     280     277    1017    0.00
    05/25/2018 00:50      74    48.5      8.52        56.6      57.6      56.4       2       6     274     242    1017    0.00
    05/25/2018 01:00      74    48.5      8.52        56.6      57.6      56.3       2       4     279     265    1017    0.00
    05/25/2018 01:10      74    48.4      8.52        56.5      57.6      56.3       3       4     280     262    1017    0.00
    05/25/2018 01:20      75    48.4      8.52        56.4      57.6      56.2       3       5     276     291    1017    0.00
    05/25/2018 01:30      75    48.5      8.52        56.3      57.6      56.2       3       5     281     267    1017    0.00
    05/25/2018 01:40      75    48.5      8.52        56.3      57.6      56.1       2       4     273     284    1017    0.00
    05/25/2018 01:50      75    48.5      8.52        56.4      57.6      56.1       2       4     269     243    1017    0.00
    05/25/2018 02:00      75    48.6      8.52        56.5      57.6      56.1       2       4     268     241    1017    0.00
    05/25/2018 02:10      75    48.5      8.52        56.5      57.6      56.1       1       2     267     247    1017    0.00
    05/25/2018 02:20      74    48.5      8.52        56.5      57.6      56.1       2       4     229     255    1017    0.00
    05/25/2018 02:30      74    48.6      8.52        56.6      57.6      56.1       3       5     197     185    1017    0.00
    05/25/2018 02:40      74    48.5      8.52        56.5      57.6      56.1       3       6     229     254    1017    0.00
    05/25/2018 02:50      74    48.3      8.52        56.5      57.6      56.1       3       6     245     267    1017    0.00
    05/25/2018 03:00      74    48.4      8.52        56.5      57.6      56.1       2       5     225     210    1017    0.00
    05/25/2018 03:10      74    48.3      8.52        56.5      57.6      56.1       2       3     244     258    1017    0.00
    05/25/2018 03:20      74    48.4      8.52        56.5      57.6      56.1       2       4     245     247    1017    0.00
    05/25/2018 03:30      74    48.4      8.52        56.4      57.6      56.1       0       2     228     276    1017    0.00
    05/25/2018 03:40      75    48.4      8.52        56.2      57.6      56.0       1       3     267     242    1017    0.00
    05/25/2018 03:50      76    48.4      8.52        56.0      57.6      55.8       1       2     275     277    1017    0.00
    05/25/2018 04:00      76    48.3      8.52        55.8      57.6      55.6       1       2     280     281    1017    0.00
    05/25/2018 04:10      76    48.2      8.52        55.8      57.6      55.6       1       3     296     281    1017    0.00
    05/25/2018 04:20      76    48.2      8.52        55.8      57.6      55.6       0       2     292     272    1017    0.00
    05/25/2018 04:30      76    48.2      8.52        55.7      57.6      55.5       1       2     285     289    1017    0.00
    05/25/2018 04:40      75    48.1      8.52        55.7      57.6      55.5       0       1     280     310    1017    0.00
    05/25/2018 04:50      75    48.1      8.52        55.6      57.6      55.5       1       3     269     249    1017    0.00
    05/25/2018 05:00      75    48.1      8.52        55.7      57.6      55.5       2       4     260     245    1017    0.00
    05/25/2018 05:10      75    48.0      8.52        55.8      57.6      55.5       3       5     255     257    1017    0.00
    05/25/2018 05:20      75    47.9      8.52        55.7      57.6      55.4       3       5     245     264    1017    0.00
    05/25/2018 05:30      75    47.8      8.52        55.6      57.6      55.4       1       3     209     191    1017    0.00
    05/25/2018 05:40      75    48.0      8.52        55.5      57.6      55.3       1       4     224     243    1017    0.00
    05/25/2018 05:50      75    48.3      8.52        55.9      57.6      55.3       1       3     190     174    1018    0.00
    05/25/2018 06:00      73    48.1      8.52        56.1      57.6      55.3       0       2     237     218    1018    0.00
    05/25/2018 06:10      73    48.1      8.52        56.6      57.6      55.3       2       5     245     252    1018    0.00
    05/25/2018 06:20      70    48.2      8.52        57.3      57.7      55.3       2       5     246     258    1018    0.00
    05/25/2018 06:30      70    47.7      8.52        57.3      57.7      55.3       2       6     279     249    1018    0.00
    05/25/2018 06:40      71    47.8      8.52        57.4      57.7      55.3       2       6     235     204    1018    0.00
    05/25/2018 06:50      72    48.1      8.52        57.2      57.7      55.3       4       6     192     197    1018    0.00
    05/25/2018 07:00      71    48.1      8.52        57.3      57.7      55.3       3       7     228     274    1018    0.00
    05/25/2018 07:10      70    48.0      8.52        57.5      57.8      55.3       3       5     216     215    1018    0.00
    05/25/2018 07:20      70    48.1      8.52        57.8      58.1      55.3       3       6     214     179    1018    0.00
    05/25/2018 07:30      68    48.0      8.52        58.1      58.3      55.3       3       6     223     260    1018    0.00
    05/25/2018 07:40      66    47.7      8.52        58.5      58.8      55.3       2       5     265     286    1018    0.00
    05/25/2018 07:50      67    47.2      8.52        58.3      58.8      55.3       2       4     274     254    1018    0.00
    05/25/2018 08:00      66    47.3      8.52        58.6      58.9      55.3       1       3     292     303    1018    0.00
    05/25/2018 08:10      65    47.4      8.52        58.8      59.1      55.3       3       7     247     191    1018    0.00
    05/25/2018 08:20      64    47.0      8.52        59.2      60.0      55.3       2       5     251     226    1018    0.00
    05/25/2018 08:30      63    47.3      8.52        60.0      60.5      55.3       3       6     180     183    1018    0.00
    05/25/2018 08:40      58    46.7      8.52        61.2      61.8      55.3       3       6     231     261    1018    0.00
    05/25/2018 08:50      57    46.6      8.52        61.4      62.5      55.3       3       5     175     182    1018    0.00
    05/25/2018 09:00      56    46.0      8.52        62.3      62.9      55.3       1       6     148     178    1018    0.00
    05/25/2018 09:10      54    45.4      8.52        61.5      62.9      55.3       2       6     167     199    1018    0.00
    05/25/2018 09:20      48    45.6      8.52        62.9      65.4      55.3       2       5     166     156    1018    0.00
    05/25/2018 09:30      49    45.4      8.52        65.3      65.8      55.3       4       8     150     166    1018    0.00
    05/25/2018 09:40      50    44.8      8.52        64.3      65.8      55.3       4       8     156     159    1018    0.00
    05/25/2018 09:50      46    43.5      8.52        64.1      65.8      55.3       3       7     217     172    1018    0.00
    05/25/2018 10:00      46    43.6      8.52        63.9      65.8      55.3       4       8     184     197    1018    0.00
    05/25/2018 10:10      45    42.7      8.52        64.1      65.8      55.3       2       6     175     211    1018    0.00
    05/25/2018 10:20      45    43.2      8.52        64.6      65.8      55.3       4       8     155     144    1018    0.00
    05/25/2018 10:30      46    42.7      8.52        64.7      65.8      55.3       3       6     116     165    1018    0.00
    05/25/2018 10:40      48    44.0      8.52        64.8      65.8      55.3       3       7     118      89    1018    0.00
    05/25/2018 10:50      47    45.0      8.52        64.9      65.8      55.3       3       6     122     136    1018    0.00
    05/25/2018 11:00      47    44.8      8.52        65.0      65.8      55.3       4       7     127      80    1018    0.00
    05/25/2018 11:10      50    44.5      8.52        64.2      65.8      55.3       3       8      87      95    1018    0.00
    05/25/2018 11:20      50    45.5      8.52        65.0      65.8      55.3       4      10     136     164    1018    0.00
    05/25/2018 11:30      50    45.9      8.52        65.0      65.8      55.3       5       9     148     147    1018    0.00
    05/25/2018 11:40      50    46.1      8.52        65.1      65.8      55.3       5       8     160     184    1018    0.00
    05/25/2018 11:50      50    46.1      8.52        66.0      66.9      55.3       3       8     143     169    1018    0.00
    05/25/2018 12:00      46    45.8      8.52        67.3      67.8      55.3       4       9     120     147    1018    0.00
    05/25/2018 12:10      46    45.6      8.52        66.9      67.8      55.3       4       9     143     150    1018    0.00
    05/25/2018 12:20      45    44.7      8.52        67.2      68.1      55.3       4       8     130     104    1018    0.00
    05/25/2018 12:30      46    44.7      8.52        66.3      68.1      55.3       5      12     151     150    1018    0.00
    05/25/2018 12:40      47    44.9      8.52        66.0      68.1      55.3       6      13     154     152    1018    0.00
    05/25/2018 12:50      44    44.6      8.52        66.4      68.1      55.3       4       8      94      77    1018    0.00
    05/25/2018 13:00      44    45.8      8.52        67.1      68.5      55.3       5      11     169     178    1018    0.00
    05/25/2018 13:10      46    45.5      8.52        69.0      69.8      55.3       4      11     157     162    1017    0.00
    05/25/2018 13:20      44    45.2      8.52        67.9      69.8      55.3       5      11     159     155    1018    0.00
    05/25/2018 13:30      41    45.9      8.52        69.0      69.8      55.3       4       9     146     152    1017    0.00
    05/25/2018 13:40      39    43.5      8.52        69.5      70.6      55.3       3       9     240     252    1017    0.00
    05/25/2018 13:50      41    44.1      8.52        68.2      70.6      55.3       5      11     169     152    1017    0.00
    05/25/2018 14:00      43    44.4      8.52        68.1      70.6      55.3       2       7     192     150    1017    0.00
    05/25/2018 14:10      43    45.8      8.52        69.6      70.6      55.3       5      11     175     160    1017    0.00
    05/25/2018 14:20      42    44.7      8.52        68.1      70.6      55.3       5       8     173     165    1017    0.00
    05/25/2018 14:30      41    44.2      8.52        68.0      70.6      55.3       4       9     221     176    1017    0.00
    05/25/2018 14:40      39    43.7      8.52        68.5      70.6      55.3       6      11     281     294    1017    0.00
    05/25/2018 14:50      39    43.1      8.52        69.2      70.6      55.3       6      13     272     269    1016    0.00
    05/25/2018 15:00      37    42.9      8.52        69.0      70.6      55.3       7      16     273     259    1016    0.00
    05/25/2018 15:10      37    42.5      8.52        69.0      70.6      55.3       7      13     259     256    1016    0.00
    05/25/2018 15:20      36    42.3      8.52        69.1      70.6      55.3       5      11     278     256    1016    0.00
    05/25/2018 15:30      38    42.6      8.52        68.9      70.6      55.3       6      12     266     245    1016    0.00
    05/25/2018 15:40      41    43.1      8.52        68.5      70.6      55.3       6      12     270     294    1016    0.00
    05/25/2018 15:50      43    43.2      8.52        68.2      70.6      55.3       9      16     262     245    1016    0.00
    05/25/2018 16:00      42    43.8      8.52        67.8      70.6      55.3       6      15     267     245    1016    0.00
    05/25/2018 16:10      43    43.6      8.52        67.5      70.6      55.3       8      14     267     257    1016    0.00
    05/25/2018 16:20      43    43.6      8.52        66.5      70.6      55.3       8      17     271     251    1016    0.00
    05/25/2018 16:30      44    43.5      8.52        66.2      70.6      55.3       8      15     271     246    1016    0.00
    05/25/2018 16:40      46    43.2      8.52        65.7      70.6      55.3       8      14     263     251    1016    0.00
    05/25/2018 16:50      45    43.4      8.52        65.4      70.6      55.3       7      14     258     261    1016    0.00
    05/25/2018 17:00      45    42.8      8.52        65.0      70.6      55.3       7      13     270     225    1016    0.00
    05/25/2018 17:10      46    43.0      8.52        64.4      70.6      55.3       8      13     273     286    1016    0.00
    05/25/2018 17:20      47    43.5      8.52        64.2      70.6      55.3       8      14     258     257    1016    0.00
    05/25/2018 17:30      49    43.5      8.52        63.4      70.6      55.3       8      14     273     291    1016    0.00
    05/25/2018 17:40      50    44.0      8.52        62.9      70.6      55.3       7      17     279     256    1016    0.00
    05/25/2018 17:50      51    43.9      8.52        62.4      70.6      55.3       7      14     276     287    1016    0.00
    05/25/2018 18:00      52    44.0      8.52        62.0      70.6      55.3       7      15     264     253    1016    0.00
    05/25/2018 18:10      53    44.1      8.52        61.7      70.6      55.3       6      16     265     247    1016    0.00
    05/25/2018 18:20      52    44.0      8.52        61.4      70.6      55.3       7      13     269     253    1016    0.00
    05/25/2018 18:30      53    43.7      8.52        61.1      70.6      55.3       6      13     272     251    1016    0.00
    05/25/2018 18:40      53    43.4      8.52        60.7      70.6      55.3       5      10     281     279    1016    0.00
    05/25/2018 18:50      55    43.7      8.52        60.3      70.6      55.3       4       9     277     247    1016    0.00
    05/25/2018 19:00      56    44.0      8.52        60.1      70.6      55.3       4       7     246     242    1016    0.00
    05/25/2018 19:10      58    44.4      8.52        59.7      70.6      55.3       4       7     254     253    1016    0.00
    05/25/2018 19:20      59    44.8      8.52        59.5      70.6      55.3       4       7     240     263    1016    0.00
    05/25/2018 19:30      59    45.0      8.52        59.3      70.6      55.3       4       9     247     250    1016    0.00
    05/25/2018 19:40      60    45.0      8.52        59.0      70.6      55.3       3       6     228     242    1016    0.00
    05/25/2018 19:50      61    45.2      8.52        58.7      70.6      55.3       3       9     239     271    1016    0.00
    05/25/2018 20:00      62    45.4      8.52        58.4      70.6      55.3       2       6     253     258    1016    0.00
    05/25/2018 20:10      63    45.5      8.52        58.1      70.6      55.3       3       6     261     245    1016    0.00
    05/25/2018 20:20      64    45.5      8.52        57.9      70.6      55.3       2       4     209     213    1016    0.00
    05/25/2018 20:30      67    45.9      8.52        57.3      70.6      55.3       3       8     234     271    1016    0.00
    05/25/2018 20:40      68    46.3      8.52        57.1      70.6      55.3       3       7     266     266    1016    0.00
    05/25/2018 20:50      68    46.5      8.52        56.9      70.6      55.3       4       6     269     246    1016    0.00
    05/25/2018 21:00      70    46.6      8.52        56.6      70.6      55.3       3       6     261     257    1016    0.00
    05/25/2018 21:10      71    46.8      8.52        56.3      70.6      55.3       3       6     263     253    1017    0.00
    05/25/2018 21:20      72    46.8      8.52        56.1      70.6      55.3       2       4     254     251    1017    0.00
    05/25/2018 21:30      72    47.0      8.52        55.8      70.6      55.3       2       5     273     257    1016    0.00
    05/25/2018 21:40      73    47.0      8.52        55.8      70.6      55.3       2       5     267     248    1016    0.00
    05/25/2018 21:50      73    47.0      8.52        55.5      70.6      55.2       3       5     218     191    1017    0.00
    05/25/2018 22:00      74    47.0      8.52        55.1      70.6      54.9       2       6     214     183    1017    0.00
    05/25/2018 22:10      74    47.1      8.52        55.1      70.6      54.9       2       6     220     211    1017    0.00
    05/25/2018 22:20      74    47.1      8.52        55.1      70.6      54.9       3       6     249     258    1016    0.00
    05/25/2018 22:30      75    47.0      8.52        54.9      70.6      54.7       1       3     258     259    1016    0.00
    05/25/2018 22:40      75    47.1      8.52        54.8      70.6      54.6       2       4     275     260    1016    0.00
    05/25/2018 22:50      75    47.2      8.52        54.8      70.6      54.5       1       2     294     300    1016    0.00
    05/25/2018 23:00      76    47.0      8.52        54.5      70.6      54.2       0       2     266     255    1016    0.00
    05/25/2018 23:10      77    46.9      8.52        54.1      70.6      53.8       0       2     186     190    1016    0.00
    05/25/2018 23:20      78    46.9      8.52        53.8      70.6      53.5       0       2     217     191    1016    0.00
    05/25/2018 23:30      78    47.2      8.52        53.8      70.6      53.5       2       3     163     164    1016    0.00
    05/25/2018 23:40      78    47.2      8.52        53.8      70.6      53.5       0       2     201     180    1016    0.00
    05/25/2018 23:50      79    47.0      8.52        53.6      70.6      53.3       2       3     176     157    1016    0.00
    05/26/2018 00:00      79    47.1      8.52        53.4      70.6      53.2       0       0     208     187    1016    0.00
    05/26/2018 00:10      79    47.0      8.52        53.3      53.6      53.1       0       1      59      59    1016    0.00
    05/26/2018 00:20      80    46.8      8.52        53.0      53.6      52.7       0       0       0      59    1015    0.00
    05/26/2018 00:30      81    47.2      8.52        53.0      53.6      52.7       0       2      30      78    1015    0.00
    05/26/2018 00:40      79    47.4      8.52        53.3      53.6      52.7       2       3      53      35    1015    0.00
    05/26/2018 00:50      78    46.8      8.52        53.5      53.6      52.7       1       2      55      66    1015    0.00
    05/26/2018 01:00      78    46.5      8.52        53.3      53.6      52.7       0       2      38      37    1015    0.00
    05/26/2018 01:10      78    46.2      8.52        52.8      53.6      52.5       0       1      33      39    1015    0.00
    05/26/2018 01:20      79    46.1      8.52        52.5      53.6      52.2       0       2      34      44    1015    0.00
    05/26/2018 01:30      79    45.9      8.52        52.2      53.6      51.9       0       1      32      31    1015    0.00
    05/26/2018 01:40      80    45.7      8.52        51.9      53.6      51.7       0       2      36      35    1015    0.00
    05/26/2018 01:50      80    46.1      8.52        52.1      53.6      51.7       0       2      29      53    1015    0.00
    05/26/2018 02:00      79    46.1      8.52        52.2      53.6      51.7       2       3      37      45    1015    0.00
    05/26/2018 02:10      79    45.9      8.52        52.3      53.6      51.7       2       3      32      51    1015    0.00
    05/26/2018 02:20      79    45.9      8.52        52.2      53.6      51.7       0       2     354      33    1015    0.00
    05/26/2018 02:30      80    45.9      8.52        52.0      53.6      51.7       1       3       7      32    1015    0.00
    05/26/2018 02:40      79    45.9      8.52        52.0      53.6      51.7       0       2     359     355    1015    0.00
    05/26/2018 02:50      79    45.6      8.52        51.8      53.6      51.5       0       2      53      17    1015    0.00
    05/26/2018 03:00      79    45.6      8.52        51.8      53.6      51.5       1       3      43      58    1015    0.00
    05/26/2018 03:10      79    45.5      8.52        51.9      53.6      51.5       2       3       7       1    1015    0.00
    05/26/2018 03:20      79    45.5      8.52        51.8      53.6      51.5       0       2       7     335    1015    0.00
    05/26/2018 03:30      78    45.4      8.52        51.8      53.6      51.5       2       5      35      45    1015    0.00
    05/26/2018 03:40      78    45.3      8.52        51.9      53.6      51.5       2       3      25      39    1015    0.00
    05/26/2018 03:50      78    45.4      8.52        52.0      53.6      51.5       2       4      16      29    1015    0.00
    05/26/2018 04:00      78    45.4      8.52        52.1      53.6      51.5       2       5      34      42    1015    0.00
    05/26/2018 04:10      78    45.4      8.52        52.1      53.6      51.5       2       4      27      33    1015    0.00
    05/26/2018 04:20      78    45.8      8.52        52.4      53.6      51.5       2       5      41      34    1015    0.00
    05/26/2018 04:30      79    46.0      8.52        52.4      53.6      51.5       2       3      29      38    1015    0.00
    05/26/2018 04:40      80    46.1      8.52        52.3      53.6      51.5       2       4      33      37    1015    0.00
    05/26/2018 04:50      80    46.5      8.52        52.4      53.6      51.5       3       6      37      39    1015    0.00
    05/26/2018 05:00      81    46.8      8.52        52.5      53.6      51.5       3       6      45      53    1015    0.00
    05/26/2018 05:10      82    47.1      8.52        52.6      53.6      51.5       2       4      63      51    1015    0.00
    05/26/2018 05:20      82    47.4      8.52        52.7      53.6      51.5       3       5      49      60    1015    0.00
    05/26/2018 05:30      82    47.6      8.52        52.9      53.6      51.5       2       4      56      65    1015    0.00
    05/26/2018 05:40      82    47.9      8.52        53.2      53.6      51.5       2       3      66      56    1015    0.00
    05/26/2018 05:50      82    48.2      8.52        53.5      53.8      51.5       2       4      76      96    1015    0.00
    05/26/2018 06:00      82    48.6      8.52        54.0      54.6      51.5       1       4      56      58    1015    0.00
    05/26/2018 06:10      78    48.7      8.52        54.9      55.1      51.5       2       5      44      35    1015    0.00
    05/26/2018 06:20      78    48.5      8.52        55.1      55.8      51.5       2       5      67      96    1015    0.00
    05/26/2018 06:30      76    48.3      8.52        55.8      56.2      51.5       3       6      54      32    1015    0.00
    05/26/2018 06:40      75    48.1      8.52        55.7      56.2      51.5       3       6      59      79    1015    0.00
    05/26/2018 06:50      71    48.1      8.52        56.7      57.3      51.5       4       8      72      53    1015    0.00
    05/26/2018 07:00      71    47.6      8.52        57.0      57.3      51.5       5       7      42      58    1015    0.00
    05/26/2018 07:10      70    47.4      8.52        56.8      57.3      51.5       3       7      64      51    1015    0.00
    05/26/2018 07:20      68    47.5      8.52        57.2      57.5      51.5       4       6      83      72    1015    0.00
    05/26/2018 07:30      66    47.3      8.52        57.8      58.8      51.5       3       6      91      92    1015    0.00
    05/26/2018 07:40      65    47.2      8.52        58.8      59.1      51.5       2       6      92      59    1015    0.00
    05/26/2018 07:50      63    47.0      8.52        59.4      59.7      51.5       3       8      88      80    1015    0.00
    05/26/2018 08:00      60    47.1      8.52        60.3      61.1      51.5       4       8      90      90    1015    0.00
    05/26/2018 08:10      59    47.4      8.52        61.5      62.2      51.5       3       6     123     172    1015    0.00
    05/26/2018 08:20      58    47.4      8.52        62.4      62.8      51.5       3       6     119     131    1015    0.00
    05/26/2018 08:30      56    47.4      8.52        62.5      63.6      51.5       1       3     135     183    1015    0.00
    05/26/2018 08:40      54    47.5      8.52        63.6      64.2      51.5       2       6     132     164    1015    0.00
    05/26/2018 08:50      54    47.2      8.52        63.4      64.2      51.5       4       7     140     147    1015    0.00
    05/26/2018 09:00      56    47.3      8.52        63.6      64.2      51.5       4       8     159     149    1015    0.00
    05/26/2018 09:10      50    47.5      8.52        64.6      65.7      51.5       4       7     161     170    1015    0.00
    05/26/2018 09:20      51    46.7      8.52        65.4      65.7      51.5       2       6     132     139    1015    0.00
    05/26/2018 09:30      50    47.8      8.52        66.2      66.7      51.5       4       9     171     145    1015    0.00
    05/26/2018 09:40      47    46.5      8.52        66.4      66.7      51.5       3       6     105      66    1015    0.00
    05/26/2018 09:50      48    46.6      8.52        66.3      66.9      51.5       4       7     106      69    1015    0.00
    05/26/2018 10:00      47    46.9      8.52        67.3      68.0      51.5       3       6     160     162    1015    0.00
    05/26/2018 10:10      47    47.3      8.52        68.1      68.4      51.5       4       7     147     168    1015    0.00
    05/26/2018 10:20      48    46.6      8.52        67.1      68.4      51.5       3       5     164     182    1015    0.00
    05/26/2018 10:30      49    45.9      8.52        66.4      68.4      51.5       2       4     209     172    1015    0.00
    05/26/2018 10:40      49    45.8      8.52        65.5      68.4      51.5       2       4      54      64    1015    0.00
    05/26/2018 10:50      49    45.7      8.52        65.4      68.4      51.5       2       5      64      56    1014    0.00
    05/26/2018 11:00      47    45.7      8.52        66.2      68.4      51.5       4       8      94     102    1014    0.00
    05/26/2018 11:10      45    45.9      8.52        66.8      68.4      51.5       3       6     114      89    1014    0.00
    05/26/2018 11:20      50    46.5      8.52        66.9      68.4      51.5       4       8     147     156    1014    0.00
    05/26/2018 11:30      49    47.4      8.52        66.9      68.4      51.5       4      10     115     152    1014    0.00
    05/26/2018 11:40      48    47.5      8.52        67.3      68.4      51.5       4       8     153     175    1014    0.00
    05/26/2018 11:50      47    47.1      8.52        67.9      68.4      51.5       3       7     125      99    1014    0.00
    05/26/2018 12:00      48    46.9      8.52        67.8      68.4      51.5       3       9     168     166    1014    0.00
    05/26/2018 12:10      53    47.7      8.52        66.4      68.4      51.5       8      11     181     204    1014    0.00
    05/26/2018 12:20      51    47.9      8.52        65.6      68.4      51.5       5       9     192     196    1014    0.00
    05/26/2018 12:30      51    48.0      8.52        66.5      68.4      51.5       6       9     173     156    1014    0.00
    05/26/2018 12:40      49    48.1      8.52        67.5      68.4      51.5       6      13     156     165    1014    0.00
    05/26/2018 12:50      49    48.2      8.52        68.0      69.1      51.5       6      12     158     166    1014    0.00
    05/26/2018 13:00      48    48.3      8.52        68.7      69.1      51.5       5      12     170     142    1014    0.00
    05/26/2018 13:10      47    48.1      8.52        69.4      69.9      51.5       3      10     153     142    1014    0.00
    05/26/2018 13:20      45    48.0      8.52        69.3      70.2      51.5       4       9     130     154    1014    0.00
    05/26/2018 13:30      46    48.1      8.52        69.9      70.4      51.5       5      10     186     157    1014    0.00
    05/26/2018 13:40      44    47.2      8.52        69.9      70.5      51.5       6      12     115      86    1014    0.00
    05/26/2018 13:50      46    47.3      8.52        69.1      70.5      51.5       6      10     144     142    1013    0.00
    05/26/2018 14:00      44    47.1      8.52        69.3      70.5      51.5       5       9     136     144    1013    0.00
    05/26/2018 14:10      45    46.9      8.52        69.2      70.5      51.5       4      10     125     145    1013    0.00
    05/26/2018 14:20      46    46.7      8.52        68.5      70.5      51.5       6      11     134     110    1013    0.00
    05/26/2018 14:30      45    46.9      8.52        68.5      70.5      51.5       5      12     125     141    1013    0.00
    05/26/2018 14:40      44    46.9      8.52        69.2      70.5      51.5       7      12     148     146    1013    0.00
    05/26/2018 14:50      45    46.8      8.52        69.3      70.5      51.5       6      12     145     148    1013    0.00
    05/26/2018 15:00      46    46.7      8.52        68.5      70.5      51.5       5      10     161     151    1013    0.00
    05/26/2018 15:10      47    46.6      8.52        68.2      70.5      51.5       4       8     141     162    1013    0.00
    05/26/2018 15:20      45    46.0      8.52        68.3      70.5      51.5       4       8     114     151    1013    0.00
    05/26/2018 15:30      45    45.8      8.52        67.5      70.5      51.5       4       8     110     130    1013    0.00
    05/26/2018 15:40      45    45.9      8.52        67.7      70.5      51.5       4       9     131     150    1013    0.00
    05/26/2018 15:50      45    46.0      8.52        68.0      70.5      51.5       5      10     142     157    1013    0.00
    05/26/2018 16:00      45    46.0      8.52        68.4      70.5      51.5       5       9     139     157    1013    0.00
    05/26/2018 16:10      42    45.9      8.52        69.0      70.5      51.5       5      10     151     155    1013    0.00
    05/26/2018 16:20      44    45.3      8.52        69.0      70.5      51.5       4       8     123     124    1013    0.00
    05/26/2018 16:30      44    45.1      8.52        67.8      70.5      51.5       4       7     114      72    1013    0.00
    05/26/2018 16:40      43    44.7      8.52        67.6      70.5      51.5       3       6     128     130    1013    0.00
    05/26/2018 16:50      43    44.3      8.52        67.4      70.5      51.5       3       6     117      85    1013    0.00
    05/26/2018 17:00      43    44.9      8.52        67.8      70.5      51.5       4       8     142     125    1013    0.00
    05/26/2018 17:10      40    44.5      8.52        68.8      70.5      51.5       3       7     111      88    1013    0.00
    05/26/2018 17:20      40    44.3      8.52        69.0      70.5      51.5       3       8     126      96    1013    0.00
    05/26/2018 17:30      43    44.2      8.52        68.1      70.5      51.5       2       5     182     136    1013    0.00
    05/26/2018 17:40      45    45.2      8.52        67.8      70.5      51.5       3       8     228     166    1013    0.00
    05/26/2018 17:50      45    45.5      8.52        67.5      70.5      51.5       4      10     263     256    1013    0.00
    05/26/2018 18:00      48    44.8      8.52        66.2      70.5      51.5       5      10     269     258    1013    0.00
    05/26/2018 18:10      51    45.8      8.52        65.2      70.5      51.5       5      11     279     287    1013    0.00
    05/26/2018 18:20      52    45.9      8.52        64.3      70.5      51.5       5      10     274     266    1013    0.00
    05/26/2018 18:30      54    46.4      8.52        63.7      70.5      51.5       4       9     278     296    1013    0.00
    05/26/2018 18:40      56    47.0      8.52        63.2      70.5      51.5       4       9     275     242    1013    0.00
    05/26/2018 18:50      57    47.4      8.52        62.9      70.5      51.5       3       6     255     261    1013    0.00
    05/26/2018 19:00      58    47.4      8.52        62.5      70.5      51.5       3       6     261     249    1013    0.00
    05/26/2018 19:10      59    47.4      8.52        62.1      70.5      51.5       1       2     233     254    1013    0.00
    05/26/2018 19:20      58    47.1      8.52        61.7      70.5      51.5       3       7     248     252    1013    0.00
    05/26/2018 19:30      59    46.9      8.52        61.6      70.5      51.5       2       4     288     312    1013    0.00
    05/26/2018 19:40      59    46.9      8.52        61.4      70.5      51.5       2       4     285     288    1013    0.00
    05/26/2018 19:50      60    46.9      8.52        61.0      70.5      51.5       1       3     294     284    1013    0.00
    05/26/2018 20:00      61    46.9      8.52        60.6      70.5      51.5       0       2     184     132    1013    0.00
    05/26/2018 20:10      61    46.9      8.52        60.3      70.5      51.5       1       2     222     306    1013    0.00
    05/26/2018 20:20      61    46.7      8.52        60.0      70.5      51.5       0       2     237     251    1014    0.00
    05/26/2018 20:30      62    46.9      8.52        59.9      70.5      51.5       1       3     277     282    1014    0.00
    05/26/2018 20:40      63    46.7      8.52        59.4      70.5      51.5       1       2     281     287    1014    0.00
    05/26/2018 20:50      63    46.6      8.52        59.1      70.5      51.5       0       2     278     286    1014    0.00
    05/26/2018 21:00      64    46.5      8.52        58.7      70.5      51.5       0       0     282     297    1014    0.00
    05/26/2018 21:10      65    46.7      8.52        58.4      70.5      51.5       0       1     312     325    1014    0.00
    05/26/2018 21:20      65    46.9      8.52        58.5      70.5      51.5       0       1     286     292    1014    0.00
    05/26/2018 21:30      66    46.8      8.52        58.2      70.5      51.5       0       1     314     316    1014    0.00
    05/26/2018 21:40      67    46.8      8.52        58.0      70.5      51.5       0       2     321      49    1014    0.00
    05/26/2018 21:50      67    46.7      8.52        57.7      70.5      51.5       0       2      59      47    1014    0.00
    05/26/2018 22:00      68    46.6      8.52        57.3      70.5      51.5       0       1      77      81    1014    0.00
    05/26/2018 22:10      69    46.6      8.52        56.9      70.5      51.5       0       1     137     139    1013    0.00
    05/26/2018 22:20      70    47.0      8.52        56.7      70.5      51.5       0       0      96     118    1014    0.00
    05/26/2018 22:30      71    47.0      8.52        56.7      70.5      51.5       0       3      89      90    1014    0.00
    05/26/2018 22:40      71    47.5      8.52        57.0      70.5      51.5       1       2     106     111    1013    0.00
    05/26/2018 22:50      71    47.6      8.52        56.8      70.5      51.5       0       1     141     114    1013    0.00
    05/26/2018 23:00      71    47.4      8.52        56.6      70.5      51.5       0       0       0     150    1013    0.00
    05/26/2018 23:10      70    47.4      8.52        56.6      70.5      51.5       1       3      62      64    1013    0.00
    05/26/2018 23:20      70    47.5      8.52        57.3      70.5      51.5       2       4      72      97    1013    0.00
    05/26/2018 23:30      70    47.8      8.52        57.5      70.5      51.5       2       4      55      28    1013    0.00
    05/26/2018 23:40      70    47.7      8.52        57.4      70.5      51.5       2       4      50      51    1013    0.00
    05/26/2018 23:50      71    47.6      8.52        57.1      70.5      51.5       2       3      32      34    1013    0.00
    05/27/2018 00:00      72    47.7      8.52        56.9      70.5      51.5       3       5      51      43    1013    0.00
    05/27/2018 00:10      72    47.9      8.52        56.8      57.0      56.6       3       5      39      36    1013    0.00
    05/27/2018 00:20      73    47.9      8.52        56.7      57.0      56.5       2       4      31      47    1013    0.00
    05/27/2018 00:30      72    47.8      8.52        56.6      57.0      56.3       2       4      37      39    1013    0.00
    05/27/2018 00:40      73    47.6      8.52        56.4      57.0      56.0       0       2      22      48    1013    0.00
    05/27/2018 00:50      73    47.4      8.52        55.9      57.0      55.7       0       3      10      36    1013    0.00
    05/27/2018 01:00      73    47.6      8.52        55.9      57.0      55.7       1       3      24      52    1013    0.00
    05/27/2018 01:10      73    47.4      8.52        55.9      57.0      55.7       2       3      34      61    1013    0.00
    05/27/2018 01:20      73    47.3      8.52        55.8      57.0      55.7       2       4      42      18    1013    0.00
    05/27/2018 01:30      74    47.4      8.52        55.7      57.0      55.5       2       4      31      59    1013    0.00
    05/27/2018 01:40      74    47.3      8.52        55.7      57.0      55.4       2       3      28      50    1013    0.00
    05/27/2018 01:50      74    47.3      8.52        55.5      57.0      55.2       2       4      17      29    1013    0.00
    05/27/2018 02:00      74    47.4      8.52        55.5      57.0      55.1       3       4      40      42    1013    0.00
    05/27/2018 02:10      74    47.3      8.52        55.3      57.0      55.0       2       4      72      40    1013    0.00
    05/27/2018 02:20      75    47.3      8.52        55.0      57.0      54.8       2       3      65      61    1013    0.00
    05/27/2018 02:30      76    47.2      8.52        54.8      57.0      54.6       1       3      51      39    1013    0.00
    05/27/2018 02:40      76    47.3      8.52        54.7      57.0      54.5       2       4      38      24    1013    0.00
    05/27/2018 02:50      76    47.3      8.52        54.6      57.0      54.4       2       4      34      41    1013    0.00
    05/27/2018 03:00      75    47.0      8.52        54.6      57.0      54.4       2       4      24      33    1013    0.00
    05/27/2018 03:10      76    46.7      8.52        54.3      57.0      54.0       1       3      18      34    1013    0.00
    05/27/2018 03:20      76    46.5      8.52        53.9      57.0      53.5       0       2      55      26    1013    0.00
    05/27/2018 03:30      78    46.4      8.52        53.4      57.0      53.1       0       2      29      49    1013    0.00
    05/27/2018 03:40      78    46.7      8.52        53.3      57.0      53.1       1       3      10       5    1013    0.00
    05/27/2018 03:50      78    46.7      8.52        53.4      57.0      53.1       1       3     359      12    1013    0.00
    05/27/2018 04:00      78    46.5      8.52        53.3      57.0      53.0       1       3       4       8    1012    0.00
    05/27/2018 04:10      78    46.4      8.52        53.0      57.0      52.8       0       1      18      87    1012    0.00
    05/27/2018 04:20      79    46.1      8.52        52.6      57.0      52.2       0       2       3     353    1012    0.00
    05/27/2018 04:30      81    46.1      8.52        52.2      57.0      52.0       0       2     336     321    1012    0.00
    05/27/2018 04:40      81    46.5      8.52        52.3      57.0      52.0       0       2       9     354    1012    0.00
    05/27/2018 04:50      81    46.2      8.52        51.9      57.0      51.6       0       0       0      -0    1013    0.00
    05/27/2018 05:00      82    46.1      8.52        51.6      57.0      51.4       0       0       0      -0    1013    0.00
    05/27/2018 05:10      83    46.3      8.52        51.5      57.0      51.2       0       2      52      60    1013    0.00
    05/27/2018 05:20      84    46.7      8.52        51.6      57.0      51.2       0       2      62      34    1013    0.00
    05/27/2018 05:30      83    47.3      8.52        52.2      57.0      51.2       0       2      60      67    1013    0.00
    05/27/2018 05:40      82    47.2      8.52        52.4      57.0      51.2       0       2     174     166    1013    0.00
    05/27/2018 05:50      81    47.6      8.52        53.0      57.0      51.2       0       2      38      59    1013    0.00
    05/27/2018 06:00      75    47.8      8.52        54.6      57.0      51.2       1       2      29      42    1013    0.00
    05/27/2018 06:10      75    47.2      8.52        55.1      57.0      51.2       1       3      34      45    1013    0.00
    05/27/2018 06:20      74    47.5      8.52        55.5      57.0      51.2       1       3      52      38    1013    0.00
    05/27/2018 06:30      74    47.9      8.52        56.0      57.0      51.2       1       3      78      72    1014    0.00
    05/27/2018 06:40      73    47.9      8.52        56.3      57.0      51.2       1       3      59      52    1014    0.00
    05/27/2018 06:50      72    48.0      8.52        56.7      57.0      51.2       1       2      53      10    1014    0.00
    05/27/2018 07:00      71    48.3      8.52        57.2      57.7      51.2       1       3      33      61    1014    0.00
    05/27/2018 07:10      69    48.2      8.52        57.9      58.2      51.2       1       3      36      52    1014    0.00
    05/27/2018 07:20      69    48.3      8.52        58.3      59.0      51.2       0       2     176     209    1014    0.00
    05/27/2018 07:30      67    48.3      8.52        59.0      59.3      51.2       1       4     111     160    1014    0.00
    05/27/2018 07:40      67    48.0      8.52        58.9      59.3      51.2       2       5      89      91    1014    0.00
    05/27/2018 07:50      67    48.2      8.52        59.1      59.5      51.2       2       6     106     159    1014    0.00
    05/27/2018 08:00      66    48.7      8.52        59.8      60.2      51.2       3       7     151     169    1014    0.00
    05/27/2018 08:10      65    48.1      8.52        59.8      60.3      51.2       2       5     145     150    1014    0.00
    05/27/2018 08:20      64    48.2      8.52        60.0      60.5      51.2       1       3     177     230    1014    0.00
    05/27/2018 08:30      64    48.4      8.52        60.7      61.1      51.2       2       4     200     211    1014    0.00
    05/27/2018 08:40      64    48.5      8.52        61.2      61.5      51.2       3       6     179     194    1014    0.00
    05/27/2018 08:50      64    48.4      8.52        60.9      61.5      51.2       3       7     188     185    1014    0.00
    05/27/2018 09:00      62    48.3      8.52        60.9      61.5      51.2       3       6     198     158    1013    0.00
    05/27/2018 09:10      58    48.7      8.52        62.3      63.3      51.2       2       7     289     215    1013    0.00
    05/27/2018 09:20      61    48.2      8.52        62.2      63.3      51.2       2       6     247     215    1013    0.00
    05/27/2018 09:30      58    48.5      8.52        62.9      63.7      51.2       2       5     289     293    1013    0.00
    05/27/2018 09:40      55    49.5      8.52        64.8      66.4      51.2       2       5     221     267    1013    0.00
    05/27/2018 09:50      53    48.8      8.52        65.6      66.4      51.2       3       6     184     242    1013    0.00
    05/27/2018 10:00      54    48.4      8.52        64.9      66.4      51.2       2       4     313     298    1013    0.00
    05/27/2018 10:10      53    49.1      8.52        66.4      67.2      51.2       3       7     182     165    1013    0.00
    05/27/2018 10:20      51    48.8      8.52        66.6      67.2      51.2       3       7     181     163    1013    0.00
    05/27/2018 10:30      49    48.4      8.52        67.4      67.9      51.2       2       4     208     209    1013    0.00
    05/27/2018 10:40      49    48.6      8.52        68.2      68.8      51.2       2       6     210     189    1013    0.00
    05/27/2018 10:50      47    48.9      8.52        69.1      69.8      51.2       3       7     159     162    1013    0.00
    05/27/2018 11:00      46    48.4      8.52        69.3      69.8      51.2       3       7     101      97    1012    0.00
    05/27/2018 11:10      47    48.7      8.52        69.3      69.8      51.2       3       7     128     142    1012    0.00
    05/27/2018 11:20      45    49.3      8.52        70.3      71.1      51.2       3       9     129     169    1012    0.00
    05/27/2018 11:30      44    48.6      8.52        70.4      71.1      51.2       3       7      85      65    1012    0.00
    05/27/2018 11:40      46    48.5      8.52        70.5      71.3      51.2       5       9      75      47    1012    0.00
    05/27/2018 11:50      45    48.4      8.52        71.1      71.8      51.2       4       7     100      75    1012    0.00
    05/27/2018 12:00      42    49.1      8.52        72.9      73.3      51.2       2       5     138     114    1012    0.00
    05/27/2018 12:10      39    48.8      8.52        73.5      74.4      51.2       2       6     169     110    1012    0.00
    05/27/2018 12:20      40    48.8      8.52        74.1      74.5      51.2       4       7     108      89    1012    0.00
    05/27/2018 12:30      39    48.6      8.52        74.8      75.7      51.2       3       9     176     179    1012    0.00
    05/27/2018 12:40      37    49.3      8.52        75.4      76.2      51.2       4       9     164     163    1012    0.00
    05/27/2018 12:50      41    49.4      8.52        75.8      76.3      51.2       5      10     115     168    1011    0.00
    05/27/2018 13:00      38    50.3      8.52        75.9      77.1      51.2       4      10     139     161    1011    0.00
    05/27/2018 13:10      41    50.3      8.52        76.8      77.1      51.2       5      11     139     124    1011    0.00
    05/27/2018 13:20      40    50.6      8.52        76.0      77.1      51.2       4      11     135      93    1011    0.00
    05/27/2018 13:30      41    50.0      8.52        75.5      77.1      51.2       4       9     116     135    1011    0.00
    05/27/2018 13:40      42    50.3      8.52        75.3      77.1      51.2       5      11     133     138    1011    0.00
    05/27/2018 13:50      43    50.1      8.52        75.1      77.1      51.2       4       8     121      80    1011    0.00
    05/27/2018 14:00      41    50.1      8.52        75.1      77.1      51.2       4       9     128     140    1011    0.00
    05/27/2018 14:10      40    50.6      8.52        75.2      77.1      51.2       4       9     134     156    1011    0.00
    05/27/2018 14:20      40    50.2      8.52        75.6      77.1      51.2       5      10     122     180    1011    0.00
    05/27/2018 14:30      42    50.2      8.52        75.3      77.1      51.2       4       9     132     152    1011    0.00
    05/27/2018 14:40      39    50.3      8.52        75.3      77.1      51.2       5      11     123      71    1011    0.00
    05/27/2018 14:50      39    50.2      8.52        75.4      77.1      51.2       4       9     100     118    1011    0.00
    05/27/2018 15:00      39    50.4      8.52        75.9      77.1      51.2       4       9     119     162    1011    0.00
    05/27/2018 15:10      41    50.4      8.52        76.0      77.1      51.2       5       9     120     105    1011    0.00
    05/27/2018 15:20      38    50.2      8.52        76.9      77.3      51.2       4       7     126     150    1011    0.00
    05/27/2018 15:30      41    49.8      8.52        76.0      77.3      51.2       3       9     116     146    1011    0.00
    05/27/2018 15:40      36    49.5      8.52        76.4      77.3      51.2       4      10     177     141    1011    0.00
    05/27/2018 15:50      36    48.0      8.52        76.5      77.3      51.2       4       9     232     268    1011    0.00
    05/27/2018 16:00      36    48.0      8.52        76.0      77.3      51.2       5      12     236     261    1011    0.00
    05/27/2018 16:10      38    48.0      8.52        75.8      77.3      51.2       4      10     248     253    1011    0.00
    05/27/2018 16:20      38    48.2      8.52        76.0      77.3      51.2       5      13     227     253    1011    0.00
    05/27/2018 16:30      37    47.8      8.52        75.6      77.3      51.2       3       9     227     257    1011    0.00
    05/27/2018 16:40      38    47.6      8.52        75.6      77.3      51.2       4       9     253     262    1010    0.00
    05/27/2018 16:50      39    47.5      8.52        75.2      77.3      51.2       4       8     258     256    1010    0.00
    05/27/2018 17:00      39    47.8      8.52        75.0      77.3      51.2       4       9     237     268    1010    0.00
    05/27/2018 17:10      38    48.1      8.52        74.8      77.3      51.2       3       8     235     249    1011    0.00
    05/27/2018 17:20      39    47.8      8.52        74.5      77.3      51.2       4      10     243     255    1011    0.00
    05/27/2018 17:30      41    48.0      8.52        73.6      77.3      51.2       3       7     237     233    1011    0.00
    05/27/2018 17:40      43    48.1      8.52        72.9      77.3      51.2       4       7     244     242    1011    0.00
    05/27/2018 17:50      42    48.1      8.52        72.4      77.3      51.2       3       7     233     268    1011    0.00
    05/27/2018 18:00      43    48.1      8.52        72.0      77.3      51.2       3       6     234     257    1011    0.00
    05/27/2018 18:10      46    48.4      8.52        71.5      77.3      51.2       3       6     207     241    1011    0.00
    05/27/2018 18:20      48    49.2      8.52        70.4      77.3      51.2       4       6     127     134    1011    0.00
    05/27/2018 18:30      49    49.3      8.52        69.5      77.3      51.2       4       7     143     139    1011    0.00
    05/27/2018 18:40      50    49.2      8.52        68.7      77.3      51.2       3       7     131      90    1011    0.00
    05/27/2018 18:50      51    49.0      8.52        68.0      77.3      51.2       2       6     123      97    1011    0.00
    05/27/2018 19:00      52    48.8      8.52        67.0      77.3      51.2       2       6     112     109    1011    0.00
    05/27/2018 19:10      54    48.9      8.52        66.4      77.3      51.2       2       5     110     102    1012    0.00
    05/27/2018 19:20      55    48.9      8.52        65.9      77.3      51.2       3       6     103      91    1012    0.00
    05/27/2018 19:30      55    48.8      8.52        65.3      77.3      51.2       2       5     108      90    1012    0.00
    05/27/2018 19:40      56    48.8      8.52        64.9      77.3      51.2       3       6     102      80    1012    0.00
    05/27/2018 19:50      57    48.8      8.52        64.5      77.3      51.2       2       5     105      77    1012    0.00
    05/27/2018 20:00      58    48.9      8.52        64.2      77.3      51.2       3       7      83     110    1012    0.00
    05/27/2018 20:10      59    48.6      8.52        63.6      77.3      51.2       4       7      80      81    1012    0.00
    05/27/2018 20:20      60    48.5      8.52        62.9      77.3      51.2       4       6      72      68    1012    0.00
    05/27/2018 20:30      60    48.6      8.52        62.5      77.3      51.2       4       7      71      62    1012    0.00
    05/27/2018 20:40      61    48.6      8.52        62.3      77.3      51.2       3       7      69      41    1012    0.00
    05/27/2018 20:50      62    48.6      8.52        62.0      77.3      51.2       3       6      78      72    1012    0.00
    05/27/2018 21:00      63    48.5      8.52        61.5      77.3      51.2       3       6      70     106    1012    0.00
    05/27/2018 21:10      63    48.5      8.52        61.1      77.3      51.2       4       8      50      32    1013    0.00